sensor_id;sensor_type;location;lat;lon;timestamp;P1;durP1;ratioP1;P2;durP2;ratioP2
75280;SDS011;63874;47.230;39.620;2023-03-01T00:02:12;21.55;;;10.52;;
75280;SDS011;63874;47.230;39.620;2023-03-01T00:07:04;12.45;;;5.60;;
75280;SDS011;63874;47.230;39.620;2023-03-01T00:09:30;16.83;;;7.15;;
75280;SDS011;63874;47.230;39.620;2023-03-01T00:14:21;16.42;;;7.38;;
75280;SDS011;63874;47.230;39.620;2023-03-01T00:16:47;18.15;;;8.68;;
75280;SDS011;63874;47.230;39.620;2023-03-01T00:21:42;18.45;;;8.20;;
75280;SDS011;63874;47.230;39.620;2023-03-01T00:24:08;18.20;;;8.25;;
75280;SDS011;63874;47.230;39.620;2023-03-01T00:26:35;13.52;;;6.50;;
75280;SDS011;63874;47.230;39.620;2023-03-01T00:31:28;17.92;;;7.00;;
75280;SDS011;63874;47.230;39.620;2023-03-01T00:33:58;14.52;;;7.32;;
75280;SDS011;63874;47.230;39.620;2023-03-01T00:36:26;20.30;;;9.77;;
75280;SDS011;63874;47.230;39.620;2023-03-01T00:38:54;21.30;;;11.38;;
75280;SDS011;63874;47.230;39.620;2023-03-01T00:41:21;16.88;;;8.32;;
75280;SDS011;63874;47.230;39.620;2023-03-01T00:43:52;18.85;;;9.00;;
75280;SDS011;63874;47.230;39.620;2023-03-01T00:46:20;17.77;;;7.75;;
75280;SDS011;63874;47.230;39.620;2023-03-01T00:48:48;18.60;;;9.50;;
75280;SDS011;63874;47.230;39.620;2023-03-01T00:51:18;17.88;;;9.35;;
75280;SDS011;63874;47.230;39.620;2023-03-01T00:53:46;21.70;;;7.57;;
75280;SDS011;63874;47.230;39.620;2023-03-01T00:56:15;15.77;;;6.70;;
75280;SDS011;63874;47.230;39.620;2023-03-01T00:58:42;17.50;;;9.07;;
75280;SDS011;63874;47.230;39.620;2023-03-01T01:03:52;15.25;;;8.25;;
75280;SDS011;63874;47.230;39.620;2023-03-01T01:06:20;17.58;;;9.45;;
75280;SDS011;63874;47.230;39.620;2023-03-01T01:08:48;17.60;;;7.95;;
75280;SDS011;63874;47.230;39.620;2023-03-01T01:11:15;13.60;;;7.25;;
75280;SDS011;63874;47.230;39.620;2023-03-01T01:13:41;16.48;;;7.75;;
75280;SDS011;63874;47.230;39.620;2023-03-01T01:16:10;19.27;;;8.82;;
75280;SDS011;63874;47.230;39.620;2023-03-01T01:21:05;13.10;;;6.13;;
75280;SDS011;63874;47.230;39.620;2023-03-01T01:23:33;14.40;;;6.78;;
75280;SDS011;63874;47.230;39.620;2023-03-01T01:28:29;13.57;;;6.78;;
75280;SDS011;63874;47.230;39.620;2023-03-01T01:33:21;25.70;;;14.35;;
75280;SDS011;63874;47.230;39.620;2023-03-01T01:38:12;12.50;;;5.50;;
75280;SDS011;63874;47.230;39.620;2023-03-01T01:40:45;12.82;;;5.53;;
75280;SDS011;63874;47.230;39.620;2023-03-01T01:43:31;18.20;;;9.65;;
75280;SDS011;63874;47.230;39.620;2023-03-01T01:46:16;15.73;;;7.45;;
75280;SDS011;63874;47.230;39.620;2023-03-01T01:48:55;17.13;;;9.73;;
75280;SDS011;63874;47.230;39.620;2023-03-01T01:51:27;18.05;;;8.30;;
75280;SDS011;63874;47.230;39.620;2023-03-01T01:54:06;14.68;;;6.40;;
75280;SDS011;63874;47.230;39.620;2023-03-01T01:56:51;13.60;;;7.53;;
75280;SDS011;63874;47.230;39.620;2023-03-01T01:59:20;9.27;;;3.90;;
75280;SDS011;63874;47.230;39.620;2023-03-01T02:01:50;15.10;;;8.23;;
75280;SDS011;63874;47.230;39.620;2023-03-01T02:04:17;16.48;;;7.95;;
75280;SDS011;63874;47.230;39.620;2023-03-01T02:06:55;16.02;;;3.42;;
75280;SDS011;63874;47.230;39.620;2023-03-01T02:09:27;13.63;;;5.95;;
75280;SDS011;63874;47.230;39.620;2023-03-01T02:11:53;14.38;;;7.75;;
75280;SDS011;63874;47.230;39.620;2023-03-01T02:14:19;12.13;;;5.78;;
75280;SDS011;63874;47.230;39.620;2023-03-01T02:19:13;13.85;;;5.63;;
75280;SDS011;63874;47.230;39.620;2023-03-01T02:21:54;15.30;;;6.80;;
75280;SDS011;63874;47.230;39.620;2023-03-01T02:27:15;15.07;;;7.82;;
75280;SDS011;63874;47.230;39.620;2023-03-01T02:29:43;19.92;;;10.20;;
75280;SDS011;63874;47.230;39.620;2023-03-01T02:34:38;15.02;;;7.05;;
75280;SDS011;63874;47.230;39.620;2023-03-01T02:37:08;8.23;;;4.10;;
75280;SDS011;63874;47.230;39.620;2023-03-01T02:39:42;9.25;;;4.22;;
75280;SDS011;63874;47.230;39.620;2023-03-01T02:42:15;11.18;;;4.93;;
75280;SDS011;63874;47.230;39.620;2023-03-01T02:44:48;10.13;;;5.18;;
75280;SDS011;63874;47.230;39.620;2023-03-01T02:47:15;14.05;;;7.32;;
75280;SDS011;63874;47.230;39.620;2023-03-01T02:54:53;12.70;;;5.63;;
75280;SDS011;63874;47.230;39.620;2023-03-01T02:57:26;10.65;;;5.35;;
75280;SDS011;63874;47.230;39.620;2023-03-01T02:59:54;8.65;;;3.35;;
75280;SDS011;63874;47.230;39.620;2023-03-01T03:02:26;12.68;;;5.38;;
75280;SDS011;63874;47.230;39.620;2023-03-01T03:05:17;12.02;;;5.35;;
75280;SDS011;63874;47.230;39.620;2023-03-01T03:07:45;8.02;;;3.65;;
75280;SDS011;63874;47.230;39.620;2023-03-01T03:10:24;8.82;;;4.43;;
75280;SDS011;63874;47.230;39.620;2023-03-01T03:12:55;9.18;;;3.80;;
75280;SDS011;63874;47.230;39.620;2023-03-01T03:15:24;11.18;;;4.90;;
75280;SDS011;63874;47.230;39.620;2023-03-01T03:17:52;14.25;;;6.13;;
75280;SDS011;63874;47.230;39.620;2023-03-01T03:20:20;12.68;;;5.95;;
75280;SDS011;63874;47.230;39.620;2023-03-01T03:22:50;10.73;;;5.10;;
75280;SDS011;63874;47.230;39.620;2023-03-01T03:25:17;9.80;;;3.60;;
75280;SDS011;63874;47.230;39.620;2023-03-01T03:27:45;12.02;;;5.43;;
75280;SDS011;63874;47.230;39.620;2023-03-01T03:30:14;10.70;;;5.45;;
75280;SDS011;63874;47.230;39.620;2023-03-01T03:32:44;10.60;;;4.70;;
75280;SDS011;63874;47.230;39.620;2023-03-01T03:36:00;10.00;;;4.18;;
75280;SDS011;63874;47.230;39.620;2023-03-01T03:38:12;10.60;;;3.75;;
75280;SDS011;63874;47.230;39.620;2023-03-01T03:40:43;8.80;;;3.55;;
75280;SDS011;63874;47.230;39.620;2023-03-01T03:43:10;12.35;;;5.32;;
75280;SDS011;63874;47.230;39.620;2023-03-01T03:45:38;8.10;;;3.10;;
75280;SDS011;63874;47.230;39.620;2023-03-01T03:50:31;9.20;;;3.15;;
75280;SDS011;63874;47.230;39.620;2023-03-01T03:53:00;14.00;;;7.22;;
75280;SDS011;63874;47.230;39.620;2023-03-01T03:55:26;9.18;;;3.67;;
75280;SDS011;63874;47.230;39.620;2023-03-01T03:57:57;10.77;;;5.63;;
75280;SDS011;63874;47.230;39.620;2023-03-01T04:00:27;9.93;;;3.75;;
75280;SDS011;63874;47.230;39.620;2023-03-01T04:02:54;6.43;;;2.50;;
75280;SDS011;63874;47.230;39.620;2023-03-01T04:05:21;7.88;;;3.15;;
75280;SDS011;63874;47.230;39.620;2023-03-01T04:07:48;7.38;;;3.17;;
75280;SDS011;63874;47.230;39.620;2023-03-01T04:12:42;11.35;;;5.72;;
75280;SDS011;63874;47.230;39.620;2023-03-01T04:15:09;7.50;;;3.33;;
75280;SDS011;63874;47.230;39.620;2023-03-01T04:17:43;14.60;;;5.47;;
75280;SDS011;63874;47.230;39.620;2023-03-01T04:20:12;9.82;;;5.57;;
75280;SDS011;63874;47.230;39.620;2023-03-01T04:22:42;12.63;;;6.47;;
75280;SDS011;63874;47.230;39.620;2023-03-01T04:25:12;11.07;;;4.38;;
75280;SDS011;63874;47.230;39.620;2023-03-01T04:27:40;9.35;;;3.72;;
75280;SDS011;63874;47.230;39.620;2023-03-01T04:30:06;11.90;;;4.60;;
75280;SDS011;63874;47.230;39.620;2023-03-01T04:32:33;11.55;;;5.38;;
75280;SDS011;63874;47.230;39.620;2023-03-01T04:37:25;12.13;;;5.10;;
75280;SDS011;63874;47.230;39.620;2023-03-01T04:39:51;6.20;;;2.30;;
75280;SDS011;63874;47.230;39.620;2023-03-01T04:42:17;9.05;;;3.85;;
75280;SDS011;63874;47.230;39.620;2023-03-01T04:44:44;14.73;;;4.75;;
75280;SDS011;63874;47.230;39.620;2023-03-01T04:47:10;10.25;;;4.22;;
75280;SDS011;63874;47.230;39.620;2023-03-01T04:49:36;9.30;;;4.57;;
75280;SDS011;63874;47.230;39.620;2023-03-01T04:52:02;11.00;;;5.28;;
75280;SDS011;63874;47.230;39.620;2023-03-01T04:54:29;8.80;;;4.40;;
75280;SDS011;63874;47.230;39.620;2023-03-01T04:56:57;8.35;;;3.22;;
75280;SDS011;63874;47.230;39.620;2023-03-01T04:59:23;11.77;;;5.45;;
75280;SDS011;63874;47.230;39.620;2023-03-01T05:01:50;10.35;;;5.00;;
75280;SDS011;63874;47.230;39.620;2023-03-01T05:04:16;13.38;;;4.10;;
75280;SDS011;63874;47.230;39.620;2023-03-01T05:09:08;11.85;;;4.95;;
75280;SDS011;63874;47.230;39.620;2023-03-01T05:14:09;11.25;;;4.72;;
75280;SDS011;63874;47.230;39.620;2023-03-01T05:16:36;10.63;;;4.60;;
75280;SDS011;63874;47.230;39.620;2023-03-01T05:21:39;7.95;;;2.65;;
75280;SDS011;63874;47.230;39.620;2023-03-01T05:24:25;9.68;;;3.90;;
75280;SDS011;63874;47.230;39.620;2023-03-01T05:26:52;12.32;;;5.38;;
75280;SDS011;63874;47.230;39.620;2023-03-01T05:29:19;9.57;;;3.58;;
75280;SDS011;63874;47.230;39.620;2023-03-01T05:31:53;17.23;;;8.50;;
75280;SDS011;63874;47.230;39.620;2023-03-01T05:34:28;8.95;;;4.53;;
75280;SDS011;63874;47.230;39.620;2023-03-01T05:36:55;13.40;;;6.72;;
75280;SDS011;63874;47.230;39.620;2023-03-01T05:39:22;10.88;;;4.40;;
75280;SDS011;63874;47.230;39.620;2023-03-01T05:41:54;19.50;;;7.10;;
75280;SDS011;63874;47.230;39.620;2023-03-01T05:44:21;11.88;;;5.93;;
75280;SDS011;63874;47.230;39.620;2023-03-01T05:46:47;17.70;;;8.30;;
75280;SDS011;63874;47.230;39.620;2023-03-01T05:49:14;14.35;;;7.90;;
75280;SDS011;63874;47.230;39.620;2023-03-01T05:51:41;12.15;;;4.88;;
75280;SDS011;63874;47.230;39.620;2023-03-01T05:54:11;10.80;;;4.00;;
75280;SDS011;63874;47.230;39.620;2023-03-01T05:56:37;14.55;;;7.70;;
75280;SDS011;63874;47.230;39.620;2023-03-01T06:01:30;15.10;;;7.03;;
75280;SDS011;63874;47.230;39.620;2023-03-01T06:04:00;11.98;;;5.85;;
75280;SDS011;63874;47.230;39.620;2023-03-01T06:06:26;14.25;;;5.75;;
75280;SDS011;63874;47.230;39.620;2023-03-01T06:11:19;9.95;;;4.25;;
75280;SDS011;63874;47.230;39.620;2023-03-01T06:13:45;14.90;;;6.60;;
75280;SDS011;63874;47.230;39.620;2023-03-01T06:16:12;12.52;;;5.55;;
75280;SDS011;63874;47.230;39.620;2023-03-01T06:18:39;13.40;;;7.30;;
75280;SDS011;63874;47.230;39.620;2023-03-01T06:21:06;14.38;;;6.50;;
75280;SDS011;63874;47.230;39.620;2023-03-01T06:23:33;14.35;;;7.22;;
75280;SDS011;63874;47.230;39.620;2023-03-01T06:25:59;13.50;;;5.20;;
75280;SDS011;63874;47.230;39.620;2023-03-01T06:28:25;16.10;;;7.97;;
75280;SDS011;63874;47.230;39.620;2023-03-01T06:30:52;19.00;;;10.07;;
75280;SDS011;63874;47.230;39.620;2023-03-01T06:33:18;17.00;;;8.07;;
75280;SDS011;63874;47.230;39.620;2023-03-01T06:35:48;13.93;;;6.78;;
75280;SDS011;63874;47.230;39.620;2023-03-01T06:38:14;15.38;;;9.23;;
75280;SDS011;63874;47.230;39.620;2023-03-01T06:43:06;16.80;;;8.98;;
75280;SDS011;63874;47.230;39.620;2023-03-01T06:45:32;14.15;;;8.25;;
75280;SDS011;63874;47.230;39.620;2023-03-01T06:48:03;13.90;;;8.02;;
75280;SDS011;63874;47.230;39.620;2023-03-01T06:50:32;14.02;;;7.50;;
75280;SDS011;63874;47.230;39.620;2023-03-01T06:52:59;16.60;;;8.45;;
75280;SDS011;63874;47.230;39.620;2023-03-01T06:57:54;9.27;;;4.22;;
75280;SDS011;63874;47.230;39.620;2023-03-01T07:00:21;13.02;;;6.85;;
75280;SDS011;63874;47.230;39.620;2023-03-01T07:02:48;16.63;;;9.88;;
75280;SDS011;63874;47.230;39.620;2023-03-01T07:07:39;17.40;;;10.23;;
75280;SDS011;63874;47.230;39.620;2023-03-01T07:10:05;13.30;;;7.22;;
75280;SDS011;63874;47.230;39.620;2023-03-01T07:12:32;16.02;;;9.43;;
75280;SDS011;63874;47.230;39.620;2023-03-01T07:17:24;16.70;;;9.90;;
75280;SDS011;63874;47.230;39.620;2023-03-01T07:19:50;13.02;;;6.78;;
75280;SDS011;63874;47.230;39.620;2023-03-01T07:24:41;14.70;;;7.30;;
75280;SDS011;63874;47.230;39.620;2023-03-01T07:27:08;12.18;;;6.22;;
75280;SDS011;63874;47.230;39.620;2023-03-01T07:32:02;15.38;;;7.82;;
75280;SDS011;63874;47.230;39.620;2023-03-01T07:34:28;12.55;;;6.53;;
75280;SDS011;63874;47.230;39.620;2023-03-01T07:36:54;17.02;;;8.48;;
75280;SDS011;63874;47.230;39.620;2023-03-01T07:41:48;20.13;;;11.77;;
75280;SDS011;63874;47.230;39.620;2023-03-01T07:44:19;13.88;;;6.72;;
75280;SDS011;63874;47.230;39.620;2023-03-01T07:49:11;12.77;;;5.70;;
75280;SDS011;63874;47.230;39.620;2023-03-01T07:54:03;5.53;;;4.18;;
75280;SDS011;63874;47.230;39.620;2023-03-01T07:58:58;14.25;;;7.47;;
75280;SDS011;63874;47.230;39.620;2023-03-01T08:01:26;9.95;;;5.40;;
75280;SDS011;63874;47.230;39.620;2023-03-01T08:06:18;17.70;;;7.82;;
75280;SDS011;63874;47.230;39.620;2023-03-01T08:08:44;17.23;;;9.80;;
75280;SDS011;63874;47.230;39.620;2023-03-01T08:11:11;19.52;;;10.75;;
75280;SDS011;63874;47.230;39.620;2023-03-01T08:13:38;17.60;;;10.00;;
75280;SDS011;63874;47.230;39.620;2023-03-01T08:16:06;22.45;;;12.02;;
75280;SDS011;63874;47.230;39.620;2023-03-01T08:18:33;19.38;;;10.55;;
75280;SDS011;63874;47.230;39.620;2023-03-01T08:21:03;19.52;;;9.40;;
75280;SDS011;63874;47.230;39.620;2023-03-01T08:23:30;19.92;;;11.05;;
75280;SDS011;63874;47.230;39.620;2023-03-01T08:28:48;19.85;;;10.68;;
75280;SDS011;63874;47.230;39.620;2023-03-01T08:34:01;18.70;;;9.40;;
75280;SDS011;63874;47.230;39.620;2023-03-01T08:36:37;21.88;;;10.05;;
75280;SDS011;63874;47.230;39.620;2023-03-01T08:39:05;21.25;;;10.77;;
75280;SDS011;63874;47.230;39.620;2023-03-01T08:41:32;18.17;;;9.48;;
75280;SDS011;63874;47.230;39.620;2023-03-01T08:43:59;22.90;;;13.00;;
75280;SDS011;63874;47.230;39.620;2023-03-01T08:46:34;21.80;;;10.88;;
75280;SDS011;63874;47.230;39.620;2023-03-01T08:49:05;18.15;;;9.00;;
75280;SDS011;63874;47.230;39.620;2023-03-01T08:51:32;17.20;;;7.65;;
75280;SDS011;63874;47.230;39.620;2023-03-01T08:54:10;20.65;;;11.80;;
75280;SDS011;63874;47.230;39.620;2023-03-01T08:56:46;19.65;;;10.48;;
75280;SDS011;63874;47.230;39.620;2023-03-01T08:59:13;20.50;;;10.88;;
75280;SDS011;63874;47.230;39.620;2023-03-01T09:01:40;21.85;;;11.05;;
75280;SDS011;63874;47.230;39.620;2023-03-01T09:04:11;22.10;;;10.80;;
75280;SDS011;63874;47.230;39.620;2023-03-01T09:06:37;18.40;;;8.38;;
75280;SDS011;63874;47.230;39.620;2023-03-01T09:09:04;18.23;;;9.93;;
75280;SDS011;63874;47.230;39.620;2023-03-01T09:11:32;19.25;;;9.82;;
75280;SDS011;63874;47.230;39.620;2023-03-01T09:13:58;27.00;;;12.70;;
75280;SDS011;63874;47.230;39.620;2023-03-01T09:18:50;15.77;;;7.13;;
75280;SDS011;63874;47.230;39.620;2023-03-01T09:21:18;18.75;;;11.18;;
75280;SDS011;63874;47.230;39.620;2023-03-01T09:23:47;19.05;;;10.63;;
75280;SDS011;63874;47.230;39.620;2023-03-01T09:26:14;22.33;;;10.70;;
75280;SDS011;63874;47.230;39.620;2023-03-01T09:28:45;17.77;;;9.88;;
75280;SDS011;63874;47.230;39.620;2023-03-01T09:31:21;15.95;;;9.20;;
75280;SDS011;63874;47.230;39.620;2023-03-01T09:33:50;15.20;;;8.65;;
75280;SDS011;63874;47.230;39.620;2023-03-01T09:36:20;19.27;;;10.57;;
75280;SDS011;63874;47.230;39.620;2023-03-01T09:38:50;16.70;;;8.48;;
75280;SDS011;63874;47.230;39.620;2023-03-01T09:46:56;17.20;;;9.07;;
75280;SDS011;63874;47.230;39.620;2023-03-01T09:49:24;17.83;;;10.77;;
75280;SDS011;63874;47.230;39.620;2023-03-01T09:54:39;18.63;;;9.65;;
75280;SDS011;63874;47.230;39.620;2023-03-01T10:02:30;19.55;;;9.20;;
75280;SDS011;63874;47.230;39.620;2023-03-01T10:05:47;13.52;;;7.03;;
75280;SDS011;63874;47.230;39.620;2023-03-01T10:08:03;13.48;;;7.40;;
75280;SDS011;63874;47.230;39.620;2023-03-01T10:10:37;14.57;;;8.35;;
75280;SDS011;63874;47.230;39.620;2023-03-01T10:13:16;14.38;;;6.93;;
75280;SDS011;63874;47.230;39.620;2023-03-01T10:19:27;17.83;;;7.03;;
75280;SDS011;63874;47.230;39.620;2023-03-01T10:24:42;14.02;;;7.38;;
75280;SDS011;63874;47.230;39.620;2023-03-01T10:27:13;13.55;;;7.22;;
75280;SDS011;63874;47.230;39.620;2023-03-01T10:29:50;14.93;;;7.55;;
75280;SDS011;63874;47.230;39.620;2023-03-01T10:32:20;13.40;;;6.82;;
75280;SDS011;63874;47.230;39.620;2023-03-01T10:34:47;11.52;;;5.35;;
75280;SDS011;63874;47.230;39.620;2023-03-01T10:42:39;16.10;;;9.25;;
75280;SDS011;63874;47.230;39.620;2023-03-01T10:45:17;13.63;;;7.25;;
75280;SDS011;63874;47.230;39.620;2023-03-01T10:48:02;15.05;;;7.13;;
75280;SDS011;63874;47.230;39.620;2023-03-01T10:50:51;11.82;;;6.72;;
75280;SDS011;63874;47.230;39.620;2023-03-01T10:58:30;15.38;;;7.47;;
75280;SDS011;63874;47.230;39.620;2023-03-01T11:01:01;13.60;;;6.57;;
75280;SDS011;63874;47.230;39.620;2023-03-01T11:03:35;18.50;;;8.38;;
75280;SDS011;63874;47.230;39.620;2023-03-01T11:08:51;15.23;;;8.20;;
75280;SDS011;63874;47.230;39.620;2023-03-01T11:13:52;14.65;;;8.57;;
75280;SDS011;63874;47.230;39.620;2023-03-01T11:16:31;13.13;;;6.57;;
75280;SDS011;63874;47.230;39.620;2023-03-01T11:21:49;20.40;;;9.93;;
75280;SDS011;63874;47.230;39.620;2023-03-01T11:24:20;14.85;;;6.60;;
75280;SDS011;63874;47.230;39.620;2023-03-01T11:27:03;18.00;;;10.25;;
75280;SDS011;63874;47.230;39.620;2023-03-01T11:32:23;12.85;;;6.18;;
75280;SDS011;63874;47.230;39.620;2023-03-01T11:34:57;13.77;;;6.35;;
75280;SDS011;63874;47.230;39.620;2023-03-01T11:37:36;16.30;;;8.98;;
75280;SDS011;63874;47.230;39.620;2023-03-01T11:42:50;17.27;;;10.50;;
75280;SDS011;63874;47.230;39.620;2023-03-01T11:45:33;14.27;;;7.15;;
75280;SDS011;63874;47.230;39.620;2023-03-01T11:50:51;17.17;;;11.00;;
75280;SDS011;63874;47.230;39.620;2023-03-01T11:53:32;16.67;;;8.43;;
75280;SDS011;63874;47.230;39.620;2023-03-01T11:56:13;12.13;;;5.60;;
75280;SDS011;63874;47.230;39.620;2023-03-01T12:01:31;11.23;;;5.72;;
75280;SDS011;63874;47.230;39.620;2023-03-01T12:04:28;13.82;;;7.43;;
75280;SDS011;63874;47.230;39.620;2023-03-01T12:07:21;19.63;;;8.32;;
75280;SDS011;63874;47.230;39.620;2023-03-01T12:12:49;15.50;;;9.35;;
75280;SDS011;63874;47.230;39.620;2023-03-01T12:23:57;16.27;;;9.50;;
75280;SDS011;63874;47.230;39.620;2023-03-01T12:40:46;14.13;;;7.95;;
75280;SDS011;63874;47.230;39.620;2023-03-01T12:46:10;12.45;;;5.72;;
75280;SDS011;63874;47.230;39.620;2023-03-01T12:51:17;15.27;;;6.72;;
75280;SDS011;63874;47.230;39.620;2023-03-01T12:53:49;10.20;;;5.28;;
75280;SDS011;63874;47.230;39.620;2023-03-01T12:56:21;9.95;;;5.22;;
75280;SDS011;63874;47.230;39.620;2023-03-01T13:04:19;11.77;;;5.40;;
75280;SDS011;63874;47.230;39.620;2023-03-01T13:07:19;13.35;;;6.43;;
75280;SDS011;63874;47.230;39.620;2023-03-01T13:18:11;11.75;;;6.07;;
75280;SDS011;63874;47.230;39.620;2023-03-01T13:26:07;14.70;;;7.38;;
75280;SDS011;63874;47.230;39.620;2023-03-01T13:31:09;13.35;;;6.72;;
75280;SDS011;63874;47.230;39.620;2023-03-01T13:33:40;14.10;;;5.82;;
75280;SDS011;63874;47.230;39.620;2023-03-01T13:46:43;14.15;;;6.13;;
75280;SDS011;63874;47.230;39.620;2023-03-01T13:49:53;15.63;;;5.35;;
75280;SDS011;63874;47.230;39.620;2023-03-01T13:55:16;10.07;;;4.50;;
75280;SDS011;63874;47.230;39.620;2023-03-01T13:57:55;10.38;;;4.20;;
75280;SDS011;63874;47.230;39.620;2023-03-01T14:00:31;11.48;;;4.75;;
75280;SDS011;63874;47.230;39.620;2023-03-01T14:06:16;11.77;;;5.93;;
75280;SDS011;63874;47.230;39.620;2023-03-01T14:08:38;13.07;;;5.53;;
75280;SDS011;63874;47.230;39.620;2023-03-01T14:11:35;14.00;;;5.60;;
75280;SDS011;63874;47.230;39.620;2023-03-01T14:19:36;9.63;;;4.45;;
75280;SDS011;63874;47.230;39.620;2023-03-01T14:24:52;11.52;;;5.95;;
75280;SDS011;63874;47.230;39.620;2023-03-01T14:27:38;13.25;;;7.03;;
75280;SDS011;63874;47.230;39.620;2023-03-01T14:32:42;12.68;;;6.93;;
75280;SDS011;63874;47.230;39.620;2023-03-01T14:35:21;11.82;;;5.32;;
75280;SDS011;63874;47.230;39.620;2023-03-01T14:37:49;13.88;;;5.00;;
75280;SDS011;63874;47.230;39.620;2023-03-01T14:40:20;12.43;;;5.45;;
75280;SDS011;63874;47.230;39.620;2023-03-01T14:42:51;10.63;;;4.78;;
75280;SDS011;63874;47.230;39.620;2023-03-01T14:45:18;13.27;;;7.00;;
75280;SDS011;63874;47.230;39.620;2023-03-01T14:47:45;8.80;;;3.97;;
75280;SDS011;63874;47.230;39.620;2023-03-01T14:52:52;11.32;;;4.10;;
75280;SDS011;63874;47.230;39.620;2023-03-01T14:55:21;14.68;;;5.55;;
75280;SDS011;63874;47.230;39.620;2023-03-01T14:57:56;13.43;;;5.25;;
75280;SDS011;63874;47.230;39.620;2023-03-01T15:00:25;9.35;;;4.03;;
75280;SDS011;63874;47.230;39.620;2023-03-01T15:02:53;13.35;;;5.85;;
75280;SDS011;63874;47.230;39.620;2023-03-01T15:05:32;7.95;;;3.35;;
75280;SDS011;63874;47.230;39.620;2023-03-01T15:08:00;5.97;;;2.25;;
75280;SDS011;63874;47.230;39.620;2023-03-01T15:10:28;11.45;;;4.78;;
75280;SDS011;63874;47.230;39.620;2023-03-01T15:12:56;12.13;;;4.45;;
75280;SDS011;63874;47.230;39.620;2023-03-01T15:15:36;10.75;;;4.63;;
75280;SDS011;63874;47.230;39.620;2023-03-01T15:20:39;13.13;;;4.90;;
75280;SDS011;63874;47.230;39.620;2023-03-01T15:23:05;10.10;;;4.05;;
75280;SDS011;63874;47.230;39.620;2023-03-01T15:25:43;10.43;;;4.05;;
75280;SDS011;63874;47.230;39.620;2023-03-01T15:28:18;11.98;;;4.68;;
75280;SDS011;63874;47.230;39.620;2023-03-01T15:30:45;9.38;;;4.30;;
75280;SDS011;63874;47.230;39.620;2023-03-01T15:35:49;11.63;;;4.53;;
75280;SDS011;63874;47.230;39.620;2023-03-01T15:38:51;10.00;;;4.75;;
75280;SDS011;63874;47.230;39.620;2023-03-01T15:41:22;9.85;;;3.25;;
75280;SDS011;63874;47.230;39.620;2023-03-01T15:43:57;9.00;;;3.83;;
75280;SDS011;63874;47.230;39.620;2023-03-01T15:48:56;13.32;;;4.93;;
75280;SDS011;63874;47.230;39.620;2023-03-01T15:51:31;9.13;;;3.95;;
75280;SDS011;63874;47.230;39.620;2023-03-01T15:54:00;10.70;;;3.97;;
75280;SDS011;63874;47.230;39.620;2023-03-01T15:56:29;12.52;;;4.57;;
75280;SDS011;63874;47.230;39.620;2023-03-01T15:58:59;11.57;;;4.75;;
75280;SDS011;63874;47.230;39.620;2023-03-01T16:02:07;13.27;;;4.65;;
75280;SDS011;63874;47.230;39.620;2023-03-01T16:04:37;11.23;;;3.38;;
75280;SDS011;63874;47.230;39.620;2023-03-01T16:07:04;9.85;;;3.50;;
75280;SDS011;63874;47.230;39.620;2023-03-01T16:09:30;9.55;;;4.00;;
75280;SDS011;63874;47.230;39.620;2023-03-01T16:11:56;6.35;;;2.45;;
75280;SDS011;63874;47.230;39.620;2023-03-01T16:14:22;10.20;;;3.97;;
75280;SDS011;63874;47.230;39.620;2023-03-01T16:16:48;11.65;;;4.45;;
75280;SDS011;63874;47.230;39.620;2023-03-01T16:19:14;12.68;;;3.50;;
75280;SDS011;63874;47.230;39.620;2023-03-01T16:21:41;11.50;;;3.88;;
75280;SDS011;63874;47.230;39.620;2023-03-01T16:24:09;13.05;;;3.47;;
75280;SDS011;63874;47.230;39.620;2023-03-01T16:26:36;11.82;;;4.82;;
75280;SDS011;63874;47.230;39.620;2023-03-01T16:29:02;9.88;;;4.22;;
75280;SDS011;63874;47.230;39.620;2023-03-01T16:31:29;10.75;;;3.85;;
75280;SDS011;63874;47.230;39.620;2023-03-01T16:33:56;10.52;;;4.00;;
75280;SDS011;63874;47.230;39.620;2023-03-01T16:36:24;13.20;;;5.00;;
75280;SDS011;63874;47.230;39.620;2023-03-01T16:38:53;20.15;;;7.72;;
75280;SDS011;63874;47.230;39.620;2023-03-01T16:41:22;17.27;;;5.63;;
75280;SDS011;63874;47.230;39.620;2023-03-01T16:43:49;14.00;;;6.00;;
75280;SDS011;63874;47.230;39.620;2023-03-01T16:46:17;15.15;;;5.75;;
75280;SDS011;63874;47.230;39.620;2023-03-01T16:48:45;15.85;;;5.05;;
75280;SDS011;63874;47.230;39.620;2023-03-01T16:51:12;15.18;;;6.43;;
75280;SDS011;63874;47.230;39.620;2023-03-01T16:53:41;17.75;;;6.65;;
75280;SDS011;63874;47.230;39.620;2023-03-01T16:56:08;9.23;;;4.13;;
75280;SDS011;63874;47.230;39.620;2023-03-01T16:58:36;15.73;;;8.00;;
75280;SDS011;63874;47.230;39.620;2023-03-01T17:01:04;17.55;;;8.93;;
75280;SDS011;63874;47.230;39.620;2023-03-01T17:03:42;15.90;;;7.20;;
75280;SDS011;63874;47.230;39.620;2023-03-01T17:06:15;17.15;;;7.72;;
75280;SDS011;63874;47.230;39.620;2023-03-01T17:08:45;17.45;;;10.32;;
75280;SDS011;63874;47.230;39.620;2023-03-01T17:11:12;16.52;;;8.43;;
75280;SDS011;63874;47.230;39.620;2023-03-01T17:13:43;10.52;;;5.53;;
75280;SDS011;63874;47.230;39.620;2023-03-01T17:16:10;12.85;;;6.53;;
75280;SDS011;63874;47.230;39.620;2023-03-01T17:18:38;16.58;;;9.65;;
75280;SDS011;63874;47.230;39.620;2023-03-01T17:21:04;14.05;;;9.00;;
75280;SDS011;63874;47.230;39.620;2023-03-01T17:23:31;11.93;;;5.93;;
75280;SDS011;63874;47.230;39.620;2023-03-01T17:25:58;13.07;;;7.38;;
75280;SDS011;63874;47.230;39.620;2023-03-01T17:28:32;19.02;;;7.82;;
75280;SDS011;63874;47.230;39.620;2023-03-01T17:31:00;13.13;;;6.38;;
75280;SDS011;63874;47.230;39.620;2023-03-01T17:33:27;20.52;;;11.45;;
75280;SDS011;63874;47.230;39.620;2023-03-01T17:35:56;14.55;;;8.15;;
75280;SDS011;63874;47.230;39.620;2023-03-01T17:38:22;12.68;;;6.80;;
75280;SDS011;63874;47.230;39.620;2023-03-01T17:40:48;15.50;;;7.55;;
75280;SDS011;63874;47.230;39.620;2023-03-01T17:43:15;15.55;;;7.13;;
75280;SDS011;63874;47.230;39.620;2023-03-01T17:45:43;10.70;;;5.50;;
75280;SDS011;63874;47.230;39.620;2023-03-01T17:48:13;17.25;;;11.25;;
75280;SDS011;63874;47.230;39.620;2023-03-01T17:50:40;10.15;;;4.45;;
75280;SDS011;63874;47.230;39.620;2023-03-01T17:53:07;14.70;;;7.57;;
75280;SDS011;63874;47.230;39.620;2023-03-01T17:55:35;14.32;;;7.93;;
75280;SDS011;63874;47.230;39.620;2023-03-01T17:58:08;16.42;;;7.45;;
75280;SDS011;63874;47.230;39.620;2023-03-01T18:00:36;14.35;;;7.28;;
75280;SDS011;63874;47.230;39.620;2023-03-01T18:03:04;13.40;;;6.97;;
75280;SDS011;63874;47.230;39.620;2023-03-01T18:05:31;13.07;;;6.13;;
75280;SDS011;63874;47.230;39.620;2023-03-01T18:07:58;8.40;;;4.25;;
75280;SDS011;63874;47.230;39.620;2023-03-01T18:10:27;15.20;;;7.03;;
75280;SDS011;63874;47.230;39.620;2023-03-01T18:12:53;15.75;;;6.97;;
75280;SDS011;63874;47.230;39.620;2023-03-01T18:15:19;17.48;;;11.32;;
75280;SDS011;63874;47.230;39.620;2023-03-01T18:17:45;14.93;;;7.10;;
75280;SDS011;63874;47.230;39.620;2023-03-01T18:20:11;17.58;;;10.02;;
75280;SDS011;63874;47.230;39.620;2023-03-01T18:22:38;19.08;;;9.38;;
75280;SDS011;63874;47.230;39.620;2023-03-01T18:25:04;17.52;;;11.77;;
75280;SDS011;63874;47.230;39.620;2023-03-01T18:27:30;17.80;;;11.10;;
75280;SDS011;63874;47.230;39.620;2023-03-01T18:32:22;19.08;;;9.05;;